Terminal Aerodrome Forecast
Issued by NWS

Home | Current Version | Previous Version | Text Only | Print | Product List | Glossary Off
Versions: 1 2 3 4 5 6 7 8 9 10 11 12 13 14 15 16 17 18 19 20

000
FTUS43 KGRB 220500
TAFCWA
TAF
KCWA 220536Z 2206/2306 19011G19KT P6SM BKN015 OVC120 WS015/22045KT
     FM221200 21009KT 5SM -FZDZ BR OVC008
     FM221500 21009KT 5SM -DZ BR OVC010
     FM221800 20007KT 6SM BR BKN015
     FM230000 20050KT 5SM -DZ BR OVC012
      AMD LTD TO CLD VIS AND WIND TIL 221200=

USA.gov is the U.S. government's official web portal to all federal, state and local government web resources and services.